Time;durP1;ratioP1;P1;durP2;ratioP2;P2;SDS_P1;SDS_P2;PMS_P1;PMS_P2;Temp;Humidity;BMP_temperature;BMP_pressure;BME280_temperature;BME280_humidity;BME280_pressure;Samples;Min_cycle;Max_cycle;Signal;HPM_P1;HPM_P2
2022/10/11 03:58:05;;;;;;;;;;;21.80;99.90;;;;;;5110939;23;19929;-74
2022/10/11 04:00:32;;;;;;;;;;;21.80;99.90;;;;;;4996535;28;20017;-74
2022/10/11 04:02:59;;;;;;;;;;;21.80;99.90;;;;;;4996521;28;19926;-74
2022/10/11 04:05:25;;;;;;;;;;;21.80;99.90;;;;;;4996466;28;19926;-75
2022/10/11 04:07:52;;;;;;;;;;;21.80;99.90;;;;;;4996037;28;20377;-75
2022/10/11 04:10:19;;;;;;;;;;;21.80;99.90;;;;;;4996892;28;19926;-73
2022/10/11 04:12:46;;;;;;;;;;;21.90;99.90;;;;;;4996349;28;20033;-73
2022/10/11 04:15:14;;;;;;;;;;;21.90;99.90;;;;;;4996267;28;19933;-73
2022/10/11 04:17:40;;;;;;;;;;;21.90;99.90;;;;;;4996139;28;20040;-73
2022/10/11 04:20:08;;;;;;;;;;;21.90;99.90;;;;;;4996191;28;20009;-72
2022/10/11 04:22:35;;;;;;;;;;;21.90;99.90;;;;;;4995586;28;20399;-72
2022/10/11 04:25:02;;;;;;;;;;;21.90;99.90;;;;;;4996075;28;20028;-72
2022/10/11 04:27:28;;;;;;;;;;;21.90;99.90;;;;;;4995970;28;19946;-72
2022/10/11 04:29:55;;;;;;;;;;;21.90;99.90;;;;;;4995986;28;19932;-72
2022/10/11 04:32:23;;;;;;;;;;;21.90;99.90;;;;;;4995913;28;19926;-73
2022/10/11 04:34:50;;;;;;;;;;;21.90;99.90;;;;;;4995843;28;19932;-72
2022/10/11 04:37:16;;;;;;;;;;;21.90;99.90;;;;;;4995717;28;19925;-74
2022/10/11 04:39:43;;;;;;;;;;;21.90;99.90;;;;;;4995524;28;20444;-73
2022/10/11 04:42:10;;;;;;;;;;;21.90;99.90;;;;;;4995755;28;20008;-74
2022/10/11 04:44:37;;;;;;;;;;;21.90;99.90;;;;;;4995495;28;20415;-75
2022/10/11 04:47:03;;;;;;;;;;;21.90;99.90;;;;;;4995641;28;20352;-74
2022/10/11 04:49:31;;;;;;;;;;;21.90;99.90;;;;;;4995406;28;20008;-73
2022/10/11 04:51:58;;;;;;;;;;;21.90;99.90;;;;;;4995296;28;20378;-73
2022/10/11 04:54:25;;;;;;;;;;;21.90;99.90;;;;;;4995196;28;20440;-73
2022/10/11 04:56:51;;;;;;;;;;;21.90;99.90;;;;;;4995037;28;19925;-73
2022/10/11 04:59:18;;;;;;;;;;;21.90;99.90;;;;;;4995112;28;20346;-73
2022/10/11 05:01:45;;;;;;;;;;;21.90;99.90;;;;;;4995422;28;20020;-74
2022/10/11 05:04:11;;;;;;;;;;;21.90;99.90;;;;;;4995380;28;20001;-73
2022/10/11 05:06:39;;;;;;;;;;;21.80;99.90;;;;;;4995249;28;19932;-74
2022/10/11 05:09:06;;;;;;;;;;;21.80;99.90;;;;;;4995261;28;19925;-73
2022/10/11 05:11:33;;;;;;;;;;;21.80;99.90;;;;;;4994925;28;19980;-73
2022/10/11 05:13:59;;;;;;;;;;;21.80;99.90;;;;;;4994930;28;20468;-73
2022/10/11 14:41:02;;;;;;;;;;;21.70;95.50;;;;;;5382918;23;19926;-80
2022/10/11 14:43:29;;;;;;;;;;;21.70;95.40;;;;;;5026988;28;19925;-80
2022/10/11 14:45:59;;;;;;;;;;;21.70;95.40;;;;;;5025160;28;19930;-80
2022/10/11 14:48:26;;;;;;;;;;;21.70;95.30;;;;;;5027204;28;20292;-80
2022/10/11 14:50:57;;;;;;;;;;;21.70;95.30;;;;;;5026327;28;19940;-79
2022/10/11 14:53:24;;;;;;;;;;;21.70;95.20;;;;;;5026434;28;20042;-79
2022/10/11 14:55:51;;;;;;;;;;;21.70;95.10;;;;;;5024704;28;19925;-79
2022/10/11 14:58:19;;;;;;;;;;;21.70;95.10;;;;;;5026845;28;19933;-79
2022/10/11 15:00:46;;;;;;;;;;;21.70;95.10;;;;;;5024450;28;20431;-82
2022/10/11 15:03:13;;;;;;;;;;;21.70;95.00;;;;;;5024531;28;19926;-82
2022/10/11 15:05:41;;;;;;;;;;;21.70;95.00;;;;;;5023470;28;20013;-81
2022/10/11 15:08:08;;;;;;;;;;;21.70;94.90;;;;;;5024346;28;19925;-81
2022/10/11 15:10:36;;;;;;;;;;;21.70;94.90;;;;;;5024021;28;19929;-81
2022/10/11 15:13:05;;;;;;;;;;;21.70;94.90;;;;;;5024400;28;19925;-81
2022/10/11 15:15:35;;;;;;;;;;;21.70;94.80;;;;;;5024075;28;19926;-81
2022/10/11 15:18:03;;;;;;;;;;;21.70;94.80;;;;;;5024069;28;19925;-80
2022/10/11 15:20:32;;;;;;;;;;;21.70;94.70;;;;;;5023978;28;19926;-80
2022/10/11 15:23:00;;;;;;;;;;;21.70;94.70;;;;;;5024031;28;19933;-81
2022/10/11 15:25:28;;;;;;;;;;;21.70;94.60;;;;;;5024085;28;19960;-81
2022/10/11 15:27:56;;;;;;;;;;;21.70;94.60;;;;;;5024121;28;19925;-81
2022/10/11 15:30:24;;;;;;;;;;;21.70;94.50;;;;;;5023863;28;19960;-81
2022/10/11 15:32:53;;;;;;;;;;;21.70;94.50;;;;;;5023401;28;19940;-81
2022/10/11 15:35:21;;;;;;;;;;;21.70;94.40;;;;;;5022414;28;19932;-82
2022/10/11 15:37:48;;;;;;;;;;;21.70;94.40;;;;;;5020433;28;19980;-84
2022/10/11 15:40:20;;;;;;;;;;;21.70;94.40;;;;;;5021172;28;20024;-81
2022/10/11 15:42:47;;;;;;;;;;;21.70;94.30;;;;;;5021070;28;19933;-80
2022/10/11 15:45:14;;;;;;;;;;;21.70;94.30;;;;;;5021641;28;19925;-80
2022/10/11 15:47:41;;;;;;;;;;;21.70;94.30;;;;;;5021692;28;19926;-81
2022/10/11 15:50:22;;;;;;;;;;;21.70;94.20;;;;;;5021222;28;19926;-80
2022/10/11 15:52:49;;;;;;;;;;;21.70;94.20;;;;;;5021401;28;19931;-81
2022/10/11 15:55:16;;;;;;;;;;;21.70;94.20;;;;;;5022202;28;19965;-81
2022/10/11 15:57:43;;;;;;;;;;;21.70;94.20;;;;;;5024996;28;19989;-82
2022/10/11 16:00:10;;;;;;;;;;;21.70;94.30;;;;;;5027325;28;19925;-82
2022/10/11 16:02:37;;;;;;;;;;;21.70;94.30;;;;;;5025519;28;19972;-82
2022/10/11 16:05:04;;;;;;;;;;;21.70;94.30;;;;;;5026516;28;19969;-82
2022/10/11 16:07:32;;;;;;;;;;;21.70;94.40;;;;;;5027506;28;20397;-82
2022/10/11 16:09:58;;;;;;;;;;;21.70;94.40;;;;;;5026162;28;19975;-82
2022/10/11 16:12:25;;;;;;;;;;;21.70;94.50;;;;;;5024835;28;19977;-81
2022/10/11 16:14:52;;;;;;;;;;;21.70;94.60;;;;;;5024591;28;20300;-80
2022/10/11 16:17:18;;;;;;;;;;;21.70;94.60;;;;;;5024042;28;19926;-81
2022/10/11 16:19:45;;;;;;;;;;;21.70;94.70;;;;;;5026073;28;19933;-81
2022/10/11 16:22:12;;;;;;;;;;;21.70;94.70;;;;;;5026302;28;19926;-81
2022/10/11 16:24:40;;;;;;;;;;;21.70;94.80;;;;;;5026718;28;19963;-81
2022/10/11 16:27:07;;;;;;;;;;;21.70;94.90;;;;;;5027800;28;19925;-81
2022/10/11 16:29:34;;;;;;;;;;;21.70;94.90;;;;;;5023731;28;19975;-79
2022/10/11 16:32:00;;;;;;;;;;;21.70;95.00;;;;;;5019594;28;19926;-79
2022/10/11 16:34:27;;;;;;;;;;;21.70;95.10;;;;;;5018366;28;20016;-79
2022/10/11 16:36:54;;;;;;;;;;;21.70;95.10;;;;;;5019483;28;20025;-79
2022/10/11 16:39:20;;;;;;;;;;;21.70;95.10;;;;;;5018699;28;20375;-79
2022/10/11 16:41:48;;;;;;;;;;;21.70;95.20;;;;;;5019924;28;20343;-80
2022/10/11 16:44:16;;;;;;;;;;;21.70;95.20;;;;;;5022329;28;19979;-81
2022/10/11 16:46:46;;;;;;;;;;;21.70;95.20;;;;;;5022421;28;19971;-79
2022/10/11 16:49:13;;;;;;;;;;;21.70;95.20;;;;;;5019927;28;20300;-80
2022/10/11 16:51:39;;;;;;;;;;;21.70;95.30;;;;;;5020935;28;19948;-81
2022/10/11 16:54:06;;;;;;;;;;;21.70;95.30;;;;;;5020564;28;20008;-76
2022/10/11 16:56:33;;;;;;;;;;;21.70;95.30;;;;;;5018867;28;19980;-81
2022/10/11 16:59:01;;;;;;;;;;;21.70;95.40;;;;;;5020031;28;19986;-82
2022/10/11 17:01:28;;;;;;;;;;;21.70;95.50;;;;;;5020158;28;19972;-81
2022/10/11 17:03:55;;;;;;;;;;;21.70;95.60;;;;;;5019804;28;19926;-81
2022/10/11 17:06:22;;;;;;;;;;;21.80;95.80;;;;;;5020382;28;19926;-81
2022/10/11 17:08:49;;;;;;;;;;;21.70;95.80;;;;;;5021033;28;19926;-82
2022/10/11 17:11:17;;;;;;;;;;;21.80;95.90;;;;;;5020857;28;19978;-82
2022/10/11 17:13:44;;;;;;;;;;;21.80;96.00;;;;;;5021154;28;19925;-82
2022/10/11 17:16:12;;;;;;;;;;;21.80;96.10;;;;;;5021136;28;20012;-82
2022/10/11 17:18:39;;;;;;;;;;;21.80;96.20;;;;;;5018840;28;20016;-81
2022/10/11 17:21:06;;;;;;;;;;;21.80;96.20;;;;;;5019289;28;19933;-81
2022/10/11 17:23:33;;;;;;;;;;;21.80;96.20;;;;;;5019904;28;20016;-82
2022/10/11 17:26:03;;;;;;;;;;;21.80;96.20;;;;;;5018805;28;20127;-83
2022/10/11 17:28:30;;;;;;;;;;;21.80;96.30;;;;;;5019808;28;19962;-82
2022/10/11 17:30:58;;;;;;;;;;;21.80;96.40;;;;;;5020398;28;19960;-80
2022/10/11 17:33:26;;;;;;;;;;;21.80;96.50;;;;;;5020248;28;19933;-80
2022/10/11 17:35:53;;;;;;;;;;;21.80;96.60;;;;;;5019387;28;19993;-81
2022/10/11 17:38:21;;;;;;;;;;;21.80;96.60;;;;;;5019658;28;19984;-81
2022/10/11 17:40:47;;;;;;;;;;;21.80;96.70;;;;;;5019314;28;20383;-80
2022/10/11 17:43:15;;;;;;;;;;;21.80;96.80;;;;;;5019137;28;20012;-80
2022/10/11 17:45:42;;;;;;;;;;;21.80;96.90;;;;;;5019349;28;19993;-80
2022/10/11 17:48:08;;;;;;;;;;;21.80;96.90;;;;;;5019425;28;19986;-80
2022/10/11 17:50:42;;;;;;;;;;;21.80;97.00;;;;;;5018357;28;19969;-80
2022/10/11 17:53:08;;;;;;;;;;;21.90;97.20;;;;;;5019272;28;19933;-81
2022/10/11 17:55:40;;;;;;;;;;;21.90;97.30;;;;;;5019121;28;19969;-80
2022/10/11 17:58:15;;;;;;;;;;;21.90;97.40;;;;;;5018250;28;19925;-81
2022/10/11 18:00:42;;;;;;;;;;;21.80;97.50;;;;;;5018941;28;19957;-80
2022/10/11 18:03:09;;;;;;;;;;;21.90;97.60;;;;;;5019234;28;20040;-80
2022/10/11 18:05:38;;;;;;;;;;;21.90;97.70;;;;;;5019223;28;19968;-81
2022/10/11 18:08:07;;;;;;;;;;;21.90;97.80;;;;;;5018838;28;19926;-79
2022/10/11 18:10:33;;;;;;;;;;;21.90;97.90;;;;;;5018841;28;20017;-81
2022/10/11 18:13:00;;;;;;;;;;;21.80;98.00;;;;;;5019761;28;19925;-80
2022/10/11 18:15:29;;;;;;;;;;;21.90;98.10;;;;;;5020648;28;19925;-80
2022/10/11 18:17:56;;;;;;;;;;;21.90;98.20;;;;;;5019029;28;19979;-81
2022/10/11 18:20:23;;;;;;;;;;;21.90;98.40;;;;;;5018250;28;19960;-81
2022/10/11 18:22:50;;;;;;;;;;;21.90;98.50;;;;;;5019051;28;20019;-81
2022/10/11 18:25:18;;;;;;;;;;;21.90;98.60;;;;;;5018589;28;20367;-81
2022/10/11 18:27:44;;;;;;;;;;;21.90;98.60;;;;;;5018550;28;19964;-81
2022/10/11 18:30:11;;;;;;;;;;;21.90;98.60;;;;;;5018857;28;20355;-81
2022/10/11 18:32:38;;;;;;;;;;;21.90;98.70;;;;;;5018458;28;19968;-81
2022/10/11 18:35:05;;;;;;;;;;;21.90;98.90;;;;;;5018844;28;19926;-82
2022/10/11 18:37:32;;;;;;;;;;;21.90;99.00;;;;;;5018468;28;20353;-81
2022/10/11 18:39:58;;;;;;;;;;;21.90;99.10;;;;;;5018492;28;19979;-81
2022/10/11 18:42:26;;;;;;;;;;;21.90;99.20;;;;;;5017797;28;19925;-82
2022/10/11 18:44:54;;;;;;;;;;;21.90;99.30;;;;;;5019468;28;20385;-81
2022/10/11 18:47:20;;;;;;;;;;;21.90;99.40;;;;;;5019876;28;19925;-81
2022/10/11 18:49:47;;;;;;;;;;;21.90;99.50;;;;;;5018553;28;19975;-81
2022/10/11 18:52:14;;;;;;;;;;;21.90;99.60;;;;;;5018250;28;20336;-82
2022/10/11 18:54:40;;;;;;;;;;;21.90;99.70;;;;;;5018086;28;19961;-82
2022/10/11 18:57:07;;;;;;;;;;;21.90;99.70;;;;;;5018093;28;19961;-82
2022/10/11 18:59:35;;;;;;;;;;;21.90;99.80;;;;;;5018188;28;19968;-80
2022/10/11 19:02:03;;;;;;;;;;;21.90;99.80;;;;;;5017509;28;20346;-80
2022/10/11 19:04:32;;;;;;;;;;;21.80;99.80;;;;;;5017408;28;19933;-80
2022/10/11 19:06:59;;;;;;;;;;;21.90;99.90;;;;;;5017707;28;19932;-81
2022/10/11 19:09:27;;;;;;;;;;;21.90;99.90;;;;;;5020714;28;19956;-80
2022/10/11 19:11:54;;;;;;;;;;;21.90;99.90;;;;;;5020712;28;19926;-80
2022/10/11 19:14:24;;;;;;;;;;;21.90;99.90;;;;;;5020795;28;19997;-79
2022/10/11 19:16:52;;;;;;;;;;;21.80;99.90;;;;;;5020609;28;19932;-79
2022/10/11 19:19:20;;;;;;;;;;;21.90;99.90;;;;;;5020743;28;20249;-79
2022/10/11 19:21:48;;;;;;;;;;;21.90;99.90;;;;;;5020987;28;20020;-80
2022/10/11 19:24:15;;;;;;;;;;;21.90;99.90;;;;;;5020385;28;20369;-80
2022/10/11 19:26:42;;;;;;;;;;;21.90;99.90;;;;;;5020203;28;19969;-80
2022/10/11 19:29:10;;;;;;;;;;;21.90;99.90;;;;;;5020963;28;19931;-80
2022/10/11 19:31:40;;;;;;;;;;;21.80;99.90;;;;;;5020356;28;20008;-80
2022/10/11 19:34:09;;;;;;;;;;;21.80;99.90;;;;;;5020555;28;19988;-80
2022/10/11 19:36:35;;;;;;;;;;;21.90;99.90;;;;;;5021093;28;19975;-82
2022/10/11 19:39:02;;;;;;;;;;;21.80;99.90;;;;;;5021765;28;20020;-80
2022/10/11 19:41:29;;;;;;;;;;;21.80;99.90;;;;;;5020856;28;20364;-78
2022/10/11 19:43:57;;;;;;;;;;;21.80;99.90;;;;;;5020691;28;19960;-78
2022/10/11 19:46:24;;;;;;;;;;;21.80;99.90;;;;;;5017388;28;19925;-76
2022/10/11 19:48:51;;;;;;;;;;;21.80;99.90;;;;;;5016909;28;19926;-76
2022/10/11 19:51:20;;;;;;;;;;;21.80;99.90;;;;;;5016069;28;19930;-76
2022/10/11 19:53:47;;;;;;;;;;;21.80;99.90;;;;;;5016254;28;19935;-76
2022/10/11 19:56:15;;;;;;;;;;;21.80;99.90;;;;;;5016078;28;20024;-76
2022/10/11 19:58:42;;;;;;;;;;;21.80;99.90;;;;;;5016229;28;19925;-76
2022/10/11 20:01:10;;;;;;;;;;;21.80;99.90;;;;;;5016184;28;20020;-76
2022/10/11 20:03:37;;;;;;;;;;;21.80;99.90;;;;;;5016831;28;19929;-76
2022/10/11 20:06:05;;;;;;;;;;;21.80;99.90;;;;;;5015917;28;19926;-76
2022/10/11 20:08:33;;;;;;;;;;;21.80;99.90;;;;;;5016051;28;20377;-76
2022/10/11 20:11:01;;;;;;;;;;;21.80;99.90;;;;;;5016062;28;19971;-77
2022/10/11 20:13:28;;;;;;;;;;;21.80;99.90;;;;;;5015841;28;19948;-77
2022/10/11 20:15:56;;;;;;;;;;;21.80;99.90;;;;;;5016070;28;20020;-77
2022/10/11 20:18:22;;;;;;;;;;;21.80;99.90;;;;;;5015995;28;19925;-77
2022/10/11 20:20:52;;;;;;;;;;;21.80;99.90;;;;;;5016463;28;19926;-77
2022/10/11 20:23:19;;;;;;;;;;;21.80;99.90;;;;;;5018407;28;20016;-77
2022/10/11 20:25:55;;;;;;;;;;;21.80;99.90;;;;;;5018044;28;20028;-77
2022/10/11 20:28:22;;;;;;;;;;;21.80;99.90;;;;;;5019535;28;19932;-77
2022/10/11 20:30:49;;;;;;;;;;;21.80;99.90;;;;;;5016170;28;20008;-78
2022/10/11 20:33:16;;;;;;;;;;;21.80;99.90;;;;;;5016815;28;20341;-77
2022/10/11 20:35:42;;;;;;;;;;;21.80;99.90;;;;;;5016724;28;20024;-77
2022/10/11 20:38:09;;;;;;;;;;;21.80;99.90;;;;;;5018066;28;20019;-79
2022/10/11 20:40:39;;;;;;;;;;;21.70;99.90;;;;;;5019499;28;19973;-78
2022/10/11 20:43:07;;;;;;;;;;;21.80;99.90;;;;;;5020510;28;19968;-78
2022/10/11 20:45:34;;;;;;;;;;;21.80;99.90;;;;;;5019297;28;19929;-79
2022/10/11 20:48:00;;;;;;;;;;;21.80;99.90;;;;;;5018989;28;19985;-78
2022/10/11 20:50:27;;;;;;;;;;;21.80;99.90;;;;;;5019265;28;19971;-78
2022/10/11 20:52:54;;;;;;;;;;;21.80;99.90;;;;;;5018892;28;19994;-78
2022/10/11 20:55:20;;;;;;;;;;;21.80;99.90;;;;;;5018927;28;19925;-78
2022/10/11 20:57:48;;;;;;;;;;;21.80;99.90;;;;;;5018329;28;19989;-78
2022/10/11 21:00:16;;;;;;;;;;;21.80;99.90;;;;;;5015293;28;20369;-78
2022/10/11 21:02:43;;;;;;;;;;;21.80;99.90;;;;;;5015739;28;19932;-77
2022/10/11 21:05:10;;;;;;;;;;;21.80;99.90;;;;;;5015389;28;20012;-77
2022/10/11 21:07:36;;;;;;;;;;;21.80;99.90;;;;;;5014848;28;20025;-77
2022/10/11 21:10:03;;;;;;;;;;;21.80;99.90;;;;;;5014728;28;19925;-78
2022/10/11 21:12:30;;;;;;;;;;;21.80;99.90;;;;;;5014980;28;20016;-77
2022/10/11 21:14:56;;;;;;;;;;;21.70;99.90;;;;;;5015007;28;20025;-77
2022/10/11 21:17:24;;;;;;;;;;;21.80;99.90;;;;;;5014895;28;19961;-77
2022/10/11 21:19:51;;;;;;;;;;;21.80;99.90;;;;;;5014735;28;19968;-77
2022/10/11 21:22:18;;;;;;;;;;;21.80;99.90;;;;;;5014855;28;20028;-77
2022/10/11 21:24:45;;;;;;;;;;;21.80;99.90;;;;;;5014834;28;19979;-77
2022/10/11 21:27:11;;;;;;;;;;;21.80;99.90;;;;;;5014854;28;19968;-76
